Terminal Aerodrome Forecast
Issued by NWS

Home | Current Version | Previous Version | Text Only | Print | Product List | Glossary On
Versions: 1 2 3 4 5 6 7 8 9 10 11 12 13 14 15
366
FTUS45 KRIW 110532
TAFJAC
TAF
KJAC 110532Z 1106/1206 36006KT P6SM BKN060
     FM111400 VRB05KT P6SM BKN050
     FM112100 18006KT P6SM SCT050
     FM120300 36006KT P6SM SCT050 BKN080
      AMD LTD TO CLD VIS AND WIND=

USA.gov is the U.S. government's official web portal to all federal, state and local government web resources and services.